Lake Los Angeles, California
Current Conditions -  °F | °C
As of 8:53 AM on Saturday 25 Oct 2014 (Local Time) from KPMD Reporting Station
Few Clouds Few Clouds  
Wind Chill: 68°   Ceiling: Unl
Heat Index: 68°   Visibility: 10mi
Dew Point: 33°   Wind: 0mph
Humidity: 27%   Direction: NA
Pressure: 30.1"   Gusts: NA
Location:  34.4834°N, 118.08°W
Report Text: KPMD 251553Z 00000KT 10SM FEW075 20/01 A3010 RMK AO2 SLP174 T02000006
Loading
Personal Weather Stations






























Interactive Weather Map
Tropical Storm Tracking
New forecast layout! Learn more

10-Day Weather Forecast

Advertisements
Track Severe Weather on mobile